Time;durP1;ratioP1;P1;durP2;ratioP2;P2;SDS_P1;SDS_P2;PMS_P1;PMS_P2;Temp;Humidity;BMP_temperature;BMP_pressure;BME280_temperature;BME280_humidity;BME280_pressure;Samples;Min_cycle;Max_cycle;Signal;HPM_P1;HPM_P2
2022/12/20 00:00:49;;;;;;;5.80;4.77;;;;;;;9.53;91.03;100241.97;5100557;28;20497;-68
2022/12/20 00:03:16;;;;;;;6.40;4.70;;;;;;;9.49;91.39;100253.84;5102278;28;20451;-68
2022/12/20 00:05:43;;;;;;;5.67;4.80;;;;;;;9.51;91.46;100259.06;5102106;28;20466;-67
2022/12/20 00:08:10;;;;;;;8.10;4.77;;;;;;;9.47;91.54;100252.31;5102277;28;20439;-67
2022/12/20 00:10:39;;;;;;;6.83;4.60;;;;;;;9.53;91.71;100257.09;5101512;27;20502;-67
2022/12/20 00:13:06;;;;;;;5.47;4.63;;;;;;;9.65;91.16;100253.34;5101548;28;20499;-67
2022/12/20 00:15:33;;;;;;;7.80;4.43;;;;;;;9.67;91.12;100255.91;5100922;27;20501;-67
2022/12/20 00:18:00;;;;;;;7.90;4.93;;;;;;;9.61;91.32;100257.28;5101774;28;20457;-67
2022/12/20 00:20:29;;;;;;;7.00;4.77;;;;;;;9.68;91.36;100238.91;5100806;28;20496;-67
2022/12/20 00:22:56;;;;;;;7.07;4.87;;;;;;;9.82;90.79;100240.34;5101989;28;20456;-67
2022/12/20 00:25:23;;;;;;;6.50;4.60;;;;;;;9.73;91.41;100234.00;5101635;28;20447;-67
2022/12/20 00:27:51;;;;;;;7.63;5.17;;;;;;;9.71;91.26;100239.47;5102297;28;20471;-67
2022/12/20 00:30:18;;;;;;;6.40;4.63;;;;;;;9.79;91.28;100238.78;5100985;28;20483;-67
2022/12/20 00:32:45;;;;;;;5.87;4.83;;;;;;;9.82;92.28;100238.53;5101264;28;20452;-68
2022/12/20 00:35:12;;;;;;;7.77;4.60;;;;;;;9.85;92.07;100227.59;5100967;28;20436;-68
2022/12/20 00:37:39;;;;;;;6.20;4.57;;;;;;;9.88;91.94;100238.00;5092597;28;20495;-67
2022/12/20 00:40:07;;;;;;;8.67;6.77;;;;;;;9.88;91.99;100235.31;5101493;28;20483;-68
2022/12/20 00:42:34;;;;;;;5.53;4.10;;;;;;;9.85;91.82;100227.59;5100924;28;20463;-68
2022/12/20 00:45:03;;;;;;;7.63;5.13;;;;;;;9.90;91.71;100219.16;5100897;28;20486;-67
2022/12/20 00:47:29;;;;;;;6.43;5.33;;;;;;;10.07;91.04;100217.63;5101051;27;20479;-67
2022/12/20 00:49:56;;;;;;;6.00;4.50;;;;;;;10.04;91.30;100208.09;5100096;28;20514;-67
2022/12/20 00:52:23;;;;;;;5.73;4.60;;;;;;;10.05;91.11;100204.44;5100716;27;20487;-67
2022/12/20 00:54:49;;;;;;;8.93;5.37;;;;;;;10.03;91.03;100208.22;5101521;28;20444;-67
2022/12/20 00:57:16;;;;;;;5.80;4.70;;;;;;;10.04;91.37;100205.41;5100521;27;20604;-67
2022/12/20 00:59:43;;;;;;;7.80;4.40;;;;;;;10.10;90.99;100204.88;5101049;28;20451;-67
2022/12/20 01:02:11;;;;;;;6.37;5.10;;;;;;;10.03;91.31;100206.38;5100512;28;20517;-67
2022/12/20 01:04:38;;;;;;;4.87;4.30;;;;;;;10.06;91.20;100214.13;5101393;28;20435;-67
2022/12/20 01:07:05;;;;;;;6.80;4.07;;;;;;;10.08;90.75;100195.28;5099855;28;20769;-67
2022/12/20 01:09:31;;;;;;;4.70;4.13;;;;;;;9.99;91.61;100197.81;5101377;28;20502;-67
2022/12/20 01:11:58;;;;;;;5.70;4.37;;;;;;;10.13;91.04;100201.06;5099850;28;20475;-67
2022/12/20 01:14:25;;;;;;;5.30;4.27;;;;;;;10.14;90.27;100186.75;5100205;28;20497;-67
2022/12/20 01:16:51;;;;;;;7.57;5.30;;;;;;;10.13;90.85;100195.72;5099913;28;20480;-67
2022/12/20 01:19:19;;;;;;;5.00;3.83;;;;;;;10.03;91.03;100187.69;5099283;28;20443;-68
2022/12/20 01:21:47;;;;;;;5.63;4.37;;;;;;;10.24;90.36;100182.25;5100370;28;21034;-67
2022/12/20 01:24:15;;;;;;;5.17;4.30;;;;;;;10.10;90.34;100180.84;5100279;28;20440;-67
2022/12/20 01:26:42;;;;;;;3.80;3.40;;;;;;;10.23;90.16;100204.59;5100630;27;20475;-68
2022/12/20 01:29:09;;;;;;;4.50;3.47;;;;;;;10.26;89.88;100198.97;5099800;28;20503;-67
2022/12/20 01:31:36;;;;;;;4.20;3.30;;;;;;;10.26;89.91;100190.09;5100354;28;20573;-67
2022/12/20 01:34:03;;;;;;;6.50;3.70;;;;;;;10.31;89.68;100194.09;5100771;28;20443;-60
2022/12/20 01:36:32;;;;;;;3.97;3.57;;;;;;;10.29;90.26;100181.81;5100313;28;20502;-58
2022/12/20 01:39:01;;;;;;;5.10;3.20;;;;;;;10.29;89.91;100193.31;5080652;28;20541;-57
2022/12/20 01:41:29;;;;;;;8.03;3.80;;;;;;;10.29;89.48;100187.16;5099415;28;20507;-58
2022/12/20 01:43:57;;;;;;;4.90;3.70;;;;;;;10.20;90.03;100182.66;5100945;28;20458;-58
2022/12/20 01:46:25;;;;;;;5.43;3.80;;;;;;;10.19;90.45;100184.50;5099681;28;20528;-58
2022/12/20 01:48:54;;;;;;;4.40;3.27;;;;;;;10.22;90.04;100194.03;5100035;28;20439;-58
2022/12/20 01:51:21;;;;;;;7.83;4.80;;;;;;;10.09;90.78;100194.31;5099789;28;20514;-58
2022/12/20 01:53:54;;;;;;;7.97;4.10;;;;;;;10.21;90.30;100195.00;5100679;28;20451;-58
2022/12/20 01:56:20;;;;;;;3.90;3.37;;;;;;;10.21;90.43;100203.91;5099892;27;20889;-58
2022/12/20 01:58:48;;;;;;;4.10;3.30;;;;;;;10.26;89.96;100190.97;5101069;28;20440;-58
2022/12/20 02:01:15;;;;;;;3.77;3.23;;;;;;;10.32;89.72;100198.44;5099309;28;20491;-57
2022/12/20 02:03:42;;;;;;;3.47;3.03;;;;;;;10.31;89.68;100180.72;5104522;28;20552;-57
2022/12/20 02:06:17;;;;;;;6.07;3.40;;;;;;;10.33;89.55;100184.09;5104599;28;20447;-57
2022/12/20 02:08:45;;;;;;;5.00;3.40;;;;;;;10.45;89.32;100173.25;5104652;28;20455;-58
2022/12/20 02:11:35;;;;;;;4.20;3.47;;;;;;;10.33;89.47;100167.22;5103839;28;20443;-60
2022/12/20 02:14:09;;;;;;;4.37;3.47;;;;;;;10.42;89.25;100169.03;5087130;28;20495;-60
2022/12/20 02:16:42;;;;;;;3.83;3.40;;;;;;;10.31;89.33;100151.34;5103002;28;20475;-60
2022/12/20 02:19:20;;;;;;;4.03;3.17;;;;;;;10.38;88.83;100156.97;5103868;28;21033;-60
2022/12/20 02:21:49;;;;;;;3.53;3.23;;;;;;;10.30;89.45;100138.09;5093550;28;20510;-60
2022/12/20 02:24:46;;;;;;;3.73;2.87;;;;;;;10.37;88.62;100136.56;5104581;28;20489;-60
2022/12/20 02:27:38;;;;;;;3.87;3.43;;;;;;;10.30;89.31;100140.75;5101881;28;20483;-60
2022/12/20 02:30:20;;;;;;;4.40;3.53;;;;;;;10.36;89.10;100143.75;5078625;28;20514;-60
2022/12/20 02:32:55;;;;;;;3.77;2.97;;;;;;;10.46;88.55;100138.38;5103258;28;20467;-60
2022/12/20 02:35:24;;;;;;;5.20;3.10;;;;;;;10.56;87.93;100138.38;5091629;28;20469;-60
2022/12/20 02:37:53;;;;;;;5.07;3.40;;;;;;;10.54;87.79;100143.84;5103901;28;20494;-60
2022/12/20 02:40:22;;;;;;;4.87;3.33;;;;;;;10.51;87.80;100136.09;5103220;28;20800;-60
2022/12/20 02:42:52;;;;;;;4.80;3.30;;;;;;;10.47;87.91;100131.22;5103734;28;20543;-60
2022/12/20 02:45:21;;;;;;;3.50;3.20;;;;;;;10.49;88.03;100137.25;5102561;27;20455;-60
2022/12/20 02:47:50;;;;;;;3.83;3.13;;;;;;;10.45;88.07;100142.03;5104257;28;20489;-60
2022/12/20 02:50:21;;;;;;;4.13;3.07;;;;;;;10.43;87.71;100135.97;5102145;27;20475;-60
2022/12/20 02:52:48;;;;;;;3.73;2.90;;;;;;;10.43;87.78;100130.63;5102964;28;20459;-60
2022/12/20 02:55:15;;;;;;;3.07;2.80;;;;;;;10.35;88.40;100134.03;5103359;28;20474;-60
2022/12/20 02:57:45;;;;;;;4.57;3.90;;;;;;;10.38;88.45;100134.72;5103636;28;20936;-60
2022/12/20 03:00:14;;;;;;;4.50;3.07;;;;;;;10.43;87.57;100125.28;5101977;28;20509;-60
2022/12/20 03:05:28;;;;;;;5.07;3.00;;;;;;;10.52;87.32;100113.75;5102972;27;20477;-58
2022/12/20 03:07:54;;;;;;;6.83;3.30;;;;;;;10.48;87.30;100104.31;5103404;28;20479;-58
2022/12/20 03:10:22;;;;;;;4.13;3.30;;;;;;;10.60;86.97;100114.84;5102875;28;20506;-58
2022/12/20 03:12:49;;;;;;;3.17;2.53;;;;;;;10.59;87.01;100126.53;5100749;28;20459;-61
2022/12/20 03:15:16;;;;;;;5.30;3.13;;;;;;;10.61;86.86;100121.91;5102121;28;20451;-60
2022/12/20 03:17:44;;;;;;;4.70;3.67;;;;;;;10.55;87.02;100107.25;5103421;28;20465;-60
2022/12/20 03:20:11;;;;;;;5.13;4.00;;;;;;;10.67;86.78;100115.97;5102008;28;20493;-60
2022/12/20 03:22:38;;;;;;;2.90;2.60;;;;;;;10.64;86.91;100122.44;5103218;28;20501;-60
2022/12/20 03:25:06;;;;;;;3.90;2.70;;;;;;;10.45;87.70;100109.97;5103159;28;20534;-60
2022/12/20 03:27:33;;;;;;;3.70;2.63;;;;;;;10.64;87.22;100125.13;5100653;28;20455;-61
2022/12/20 03:30:00;;;;;;;3.90;2.47;;;;;;;10.65;87.14;100115.28;5102535;28;20487;-60
2022/12/20 03:32:26;;;;;;;5.23;3.43;;;;;;;10.62;87.12;100119.06;5101778;27;21607;-60
2022/12/20 03:34:54;;;;;;;3.47;3.10;;;;;;;10.56;87.21;100116.97;5103322;28;20447;-60
2022/12/20 03:37:21;;;;;;;6.33;2.93;;;;;;;10.65;86.51;100123.28;5099860;28;20577;-60
2022/12/20 03:39:48;;;;;;;3.10;2.80;;;;;;;10.64;86.68;100119.78;5103027;28;20475;-60
2022/12/20 03:42:15;;;;;;;3.90;2.70;;;;;;;10.64;86.64;100127.81;5101471;28;21061;-60
2022/12/20 03:44:41;;;;;;;3.87;2.80;;;;;;;10.57;86.53;100131.19;5101748;28;20905;-60
2022/12/20 03:47:08;;;;;;;4.23;3.63;;;;;;;10.58;86.64;100120.34;5101970;27;20958;-60
2022/12/20 03:49:35;;;;;;;3.07;2.77;;;;;;;10.62;86.39;100126.25;5101766;28;20476;-60
2022/12/20 03:52:03;;;;;;;4.53;2.67;;;;;;;10.63;86.40;100115.41;5083372;28;21069;-60
2022/12/20 03:54:29;;;;;;;3.90;3.47;;;;;;;10.69;86.12;100122.00;5102842;28;20480;-60
2022/12/20 03:56:56;;;;;;;3.30;2.67;;;;;;;10.68;86.13;100131.03;5101844;28;20514;-60
2022/12/20 03:59:23;;;;;;;3.10;2.80;;;;;;;10.69;85.71;100128.22;5101876;28;20439;-60
2022/12/20 04:01:49;;;;;;;3.07;2.73;;;;;;;10.64;86.32;100124.25;5100937;28;20511;-59
2022/12/20 04:04:16;;;;;;;3.77;2.77;;;;;;;10.65;86.19;100123.28;5102733;28;20459;-60
2022/12/20 04:06:43;;;;;;;2.57;2.37;;;;;;;10.60;86.25;100133.56;5101651;28;20479;-60
2022/12/20 04:09:12;;;;;;;3.10;2.70;;;;;;;10.72;85.97;100140.44;5102395;28;20475;-60
2022/12/20 04:11:39;;;;;;;3.47;2.87;;;;;;;10.72;85.66;100153.81;5101499;28;20945;-60
2022/12/20 04:14:06;;;;;;;4.57;3.17;;;;;;;10.58;86.56;100146.25;5102398;28;20448;-60
2022/12/20 04:16:33;;;;;;;4.90;2.57;;;;;;;10.61;87.36;100145.97;5101285;28;20483;-59
2022/12/20 04:19:00;;;;;;;4.20;3.07;;;;;;;10.65;87.69;100144.69;5101471;28;20448;-60
2022/12/20 04:21:29;;;;;;;3.30;3.00;;;;;;;10.60;88.38;100152.28;5101174;28;20483;-60
2022/12/20 04:23:56;;;;;;;3.60;2.70;;;;;;;10.51;89.04;100152.16;5101614;28;20499;-60
2022/12/20 04:26:24;;;;;;;3.73;3.00;;;;;;;10.38;91.02;100145.41;5100275;28;20483;-61
2022/12/20 04:28:51;;;;;;;7.03;3.20;;;;;;;10.21;91.82;100131.75;5101884;28;20465;-61
2022/12/20 04:31:18;;;;;;;3.10;2.80;;;;;;;10.26;91.91;100134.84;5099948;27;20475;-61
2022/12/20 04:33:45;;;;;;;3.13;2.83;;;;;;;10.27;93.13;100141.03;5102032;28;20480;-60
2022/12/20 04:36:12;;;;;;;4.23;3.07;;;;;;;10.15;93.66;100138.47;5101410;28;20507;-60
2022/12/20 04:38:39;;;;;;;5.13;3.40;;;;;;;10.21;93.90;100145.13;5101104;28;20993;-60
2022/12/20 04:41:06;;;;;;;4.10;3.50;;;;;;;10.03;94.49;100138.78;5101618;28;20639;-60
2022/12/20 04:43:34;;;;;;;3.90;3.53;;;;;;;10.07;94.62;100143.72;5100658;28;20459;-60
2022/12/20 04:46:01;;;;;;;4.90;3.40;;;;;;;10.08;95.00;100139.19;5100405;27;20487;-60
2022/12/20 04:48:28;;;;;;;5.30;4.13;;;;;;;9.99;95.45;100141.72;5101668;28;20505;-60
2022/12/20 04:50:56;;;;;;;5.60;3.40;;;;;;;9.95;95.84;100132.31;5100490;28;20476;-60
2022/12/20 04:56:08;;;;;;;4.03;3.63;;;;;;;10.02;95.43;100118.41;5101158;27;20506;-60
2022/12/20 04:58:36;;;;;;;7.20;3.97;;;;;;;9.94;95.34;100116.41;5101391;28;20443;-60
2022/12/20 05:01:03;;;;;;;3.20;2.90;;;;;;;9.98;95.82;100126.69;5099614;27;20502;-60
2022/12/20 05:03:30;;;;;;;6.73;4.00;;;;;;;9.98;95.68;100117.81;5094170;28;20467;-58
2022/12/20 05:05:56;;;;;;;4.77;3.40;;;;;;;9.94;96.11;100119.94;5101038;27;20475;-57
2022/12/20 05:08:23;;;;;;;7.03;4.10;;;;;;;10.00;95.81;100123.88;5100672;28;20440;-58
2022/12/20 05:10:50;;;;;;;4.73;4.33;;;;;;;10.02;96.16;100121.91;5100881;28;20511;-58
2022/12/20 05:13:16;;;;;;;6.63;3.87;;;;;;;9.93;96.52;100120.06;5100445;28;20478;-57
2022/12/20 05:15:45;;;;;;;4.73;3.90;;;;;;;9.90;96.65;100107.84;5099926;28;20471;-58
2022/12/20 05:18:11;;;;;;;4.27;3.87;;;;;;;9.94;96.70;100113.75;5101234;28;20468;-57
2022/12/20 05:20:38;;;;;;;4.37;3.90;;;;;;;9.88;96.70;100112.50;5100277;28;20478;-57
2022/12/20 05:28:31;;;;;;;5.43;4.40;;;;;;;10.00;96.14;100118.53;5078925;28;20501;-57
2022/12/20 05:31:00;;;;;;;5.27;3.90;;;;;;;9.93;95.93;100128.06;5094495;27;20496;-58
2022/12/20 05:33:27;;;;;;;4.50;4.00;;;;;;;9.89;96.77;100118.66;5088243;28;20479;-58
2022/12/20 05:35:54;;;;;;;6.20;5.07;;;;;;;10.01;95.34;100111.38;5081650;28;20510;-57
2022/12/20 05:38:21;;;;;;;5.40;4.10;;;;;;;10.03;95.30;100109.41;5086904;28;20483;-58
2022/12/20 05:40:49;;;;;;;4.10;3.80;;;;;;;10.01;95.24;100108.69;5100546;28;20562;-60
2022/12/20 05:43:16;;;;;;;4.60;4.10;;;;;;;10.08;94.49;100102.63;5099459;28;20456;-66
2022/12/20 05:45:46;;;;;;;4.37;3.73;;;;;;;10.02;94.22;100118.41;5082157;28;20478;-67
2022/12/20 05:48:15;;;;;;;5.93;4.17;;;;;;;10.07;94.21;100108.97;5081099;28;20454;-67
2022/12/20 05:50:42;;;;;;;8.70;4.23;;;;;;;10.03;94.53;100120.06;5100341;28;20475;-66
2022/12/20 05:53:10;;;;;;;4.53;4.13;;;;;;;9.97;95.28;100116.16;5097656;28;20460;-67
2022/12/20 05:55:39;;;;;;;5.20;4.30;;;;;;;10.03;95.17;100115.56;5098816;28;20475;-66
2022/12/20 05:58:06;;;;;;;5.03;4.17;;;;;;;9.93;96.13;100107.56;5100365;28;20814;-66
2022/12/20 06:00:33;;;;;;;5.17;4.30;;;;;;;9.97;96.42;100108.13;5096927;28;20463;-66
2022/12/20 06:03:00;;;;;;;6.57;4.87;;;;;;;9.91;96.68;100106.00;5099846;28;21045;-69
2022/12/20 06:05:28;;;;;;;6.53;4.40;;;;;;;9.74;97.19;100100.41;5100074;27;20481;-69
2022/12/20 06:07:55;;;;;;;4.40;4.00;;;;;;;9.79;98.02;100105.28;5100228;28;20439;-69
2022/12/20 06:10:22;;;;;;;5.37;4.50;;;;;;;9.66;98.96;100102.06;5094992;28;20483;-69
2022/12/20 06:12:49;;;;;;;6.30;4.97;;;;;;;9.64;99.49;100098.69;5100575;28;20512;-69
2022/12/20 06:15:15;;;;;;;6.20;5.07;;;;;;;9.58;99.58;100098.28;5100375;28;20470;-67
2022/12/20 06:17:43;;;;;;;9.37;4.90;;;;;;;9.57;100.00;100109.06;5100370;28;20466;-67
2022/12/20 06:20:11;;;;;;;6.37;4.87;;;;;;;9.59;100.00;100097.28;5093569;27;20451;-69
2022/12/20 06:22:39;;;;;;;8.37;5.97;;;;;;;9.50;100.00;100102.59;5100786;28;20447;-69
2022/12/20 06:25:08;;;;;;;8.37;4.80;;;;;;;9.51;100.00;100101.59;5101119;28;20470;-69
2022/12/20 06:27:35;;;;;;;6.87;6.17;;;;;;;9.49;100.00;100107.06;5096887;28;20494;-69
2022/12/20 06:30:02;;;;;;;7.23;5.87;;;;;;;9.50;100.00;100100.78;5087017;28;20455;-69
2022/12/20 06:32:29;;;;;;;6.60;5.60;;;;;;;9.52;100.00;100106.81;5084046;27;20483;-69
2022/12/20 06:34:55;;;;;;;7.03;5.90;;;;;;;9.54;100.00;100091.50;5086558;28;20506;-69
2022/12/20 06:37:22;;;;;;;7.50;6.23;;;;;;;9.53;100.00;100102.31;5087704;27;20495;-69
2022/12/20 06:39:50;;;;;;;9.83;6.10;;;;;;;9.53;100.00;100105.84;5089650;28;20903;-69
2022/12/20 06:42:17;;;;;;;9.37;5.90;;;;;;;9.67;100.00;100093.94;5089789;28;20481;-67
2022/12/20 06:44:44;;;;;;;8.30;5.70;;;;;;;9.60;99.84;100098.97;5094099;28;20459;-62
2022/12/20 06:47:11;;;;;;;7.67;5.90;;;;;;;9.68;99.29;100106.28;5083939;28;20550;-62
2022/12/20 06:49:37;;;;;;;6.40;5.57;;;;;;;9.76;98.80;100109.09;5098637;28;20479;-62
2022/12/20 06:52:05;;;;;;;7.90;5.70;;;;;;;9.80;98.68;100102.50;5084991;28;20499;-62
2022/12/20 06:54:32;;;;;;;7.93;6.20;;;;;;;9.80;98.54;100094.47;5083598;28;20790;-62
2022/12/20 06:57:00;;;;;;;7.30;5.73;;;;;;;9.86;98.29;100097.56;5089276;28;20921;-63
2022/12/20 06:59:26;;;;;;;8.60;5.63;;;;;;;9.80;98.09;100090.97;5084868;28;20486;-63
2022/12/20 07:01:53;;;;;;;6.30;5.70;;;;;;;9.77;98.41;100089.44;5094118;28;20517;-63
2022/12/20 07:04:20;;;;;;;8.17;6.20;;;;;;;9.83;98.34;100082.69;5092752;28;20497;-63
2022/12/20 07:06:46;;;;;;;6.93;5.30;;;;;;;9.73;99.05;100088.00;5085335;28;20552;-63
2022/12/20 07:09:13;;;;;;;7.70;6.43;;;;;;;9.77;98.86;100078.75;5103795;28;21005;-63
2022/12/20 07:11:42;;;;;;;8.00;6.20;;;;;;;9.69;99.56;100083.94;5102732;28;20707;-63
2022/12/20 07:14:10;;;;;;;6.53;5.40;;;;;;;9.67;99.12;100093.06;5103560;28;20451;-58
2022/12/20 07:16:37;;;;;;;8.07;6.17;;;;;;;9.53;100.00;100089.84;5103353;27;20478;-58
2022/12/20 07:19:04;;;;;;;8.13;5.80;;;;;;;9.56;100.00;100078.03;5103045;28;20451;-58
2022/12/20 07:21:31;;;;;;;8.30;6.90;;;;;;;9.37;100.00;100082.34;5103390;28;20480;-58
2022/12/20 07:23:58;;;;;;;7.90;6.57;;;;;;;9.42;100.00;100089.94;5103272;28;20658;-58
2022/12/20 07:26:24;;;;;;;10.73;7.20;;;;;;;9.38;100.00;100096.53;5103395;28;20514;-60
2022/12/20 07:28:51;;;;;;;8.20;7.20;;;;;;;9.35;100.00;100094.97;5103107;28;20427;-60
2022/12/20 07:31:19;;;;;;;8.90;8.00;;;;;;;9.20;100.00;100097.19;5102708;28;20490;-61
2022/12/20 07:33:46;;;;;;;10.90;7.40;;;;;;;9.26;100.00;100086.97;5102927;28;20463;-61
2022/12/20 07:36:14;;;;;;;8.43;7.50;;;;;;;9.16;100.00;100081.59;5102959;28;20505;-61
2022/12/20 07:38:41;;;;;;;9.43;7.10;;;;;;;9.18;99.95;100087.63;5102398;28;20579;-61
2022/12/20 07:41:09;;;;;;;8.70;7.80;;;;;;;9.19;99.77;100074.16;5092690;28;20472;-60
2022/12/20 07:43:36;;;;;;;11.10;8.00;;;;;;;9.22;100.00;100068.56;5088805;28;20453;-61
2022/12/20 07:46:04;;;;;;;8.40;7.40;;;;;;;9.27;99.49;100075.28;5102207;27;20479;-61
2022/12/20 07:48:32;;;;;;;10.33;7.40;;;;;;;9.29;99.53;100082.19;5102262;28;20440;-60
2022/12/20 07:51:01;;;;;;;10.57;7.50;;;;;;;9.31;99.50;100076.72;5101712;28;20487;-63
2022/12/20 07:53:29;;;;;;;8.73;6.90;;;;;;;9.28;99.63;100079.66;5102779;28;20477;-60
2022/12/20 07:55:57;;;;;;;11.47;7.90;;;;;;;9.22;99.49;100078.38;5102164;28;20460;-61
2022/12/20 07:58:23;;;;;;;10.67;8.50;;;;;;;9.19;100.00;100083.97;5102169;28;20436;-61
2022/12/20 08:00:50;;;;;;;10.77;7.60;;;;;;;9.13;100.00;100085.38;5101150;27;20491;-60
2022/12/20 08:03:20;;;;;;;11.63;9.17;;;;;;;9.17;100.00;100073.44;5102630;28;20451;-61
2022/12/20 08:05:54;;;;;;;11.87;7.80;;;;;;;9.18;99.71;100074.28;5101553;28;20471;-60
2022/12/20 08:08:21;;;;;;;10.13;8.03;;;;;;;9.26;99.62;100069.13;5102613;28;20893;-61
2022/12/20 08:10:48;;;;;;;11.17;8.50;;;;;;;9.29;98.83;100063.50;5102113;28;20483;-61
2022/12/20 08:13:15;;;;;;;9.53;7.57;;;;;;;9.36;98.20;100053.97;5101757;28;20448;-60
2022/12/20 08:15:42;;;;;;;9.37;7.67;;;;;;;9.35;97.92;100062.13;5100011;27;20471;-60
2022/12/20 08:18:09;;;;;;;8.20;7.03;;;;;;;9.31;98.19;100066.06;5073571;28;20473;-61
2022/12/20 08:20:35;;;;;;;9.00;7.80;;;;;;;9.37;98.07;100049.47;5101072;28;20467;-60
2022/12/20 08:23:04;;;;;;;9.10;7.90;;;;;;;9.36;97.43;100045.97;5099643;28;20448;-61
2022/12/20 08:25:31;;;;;;;11.07;7.33;;;;;;;9.45;97.14;100046.13;5102352;28;20479;-60
2022/12/20 08:28:00;;;;;;;8.97;7.80;;;;;;;9.56;96.69;100038.00;5102930;28;20477;-61
2022/12/20 08:30:27;;;;;;;7.30;6.60;;;;;;;9.54;96.43;100034.63;5101770;28;20760;-61
2022/12/20 08:32:54;;;;;;;8.53;7.47;;;;;;;9.63;95.57;100049.78;5085943;28;20554;-61
2022/12/20 08:35:21;;;;;;;8.27;6.70;;;;;;;9.64;95.80;100050.66;5102543;28;20458;-58
2022/12/20 08:37:48;;;;;;;9.03;6.67;;;;;;;9.66;95.21;100043.34;5099949;28;20459;-59
2022/12/20 08:40:17;;;;;;;8.43;6.67;;;;;;;9.74;94.90;100040.81;5088796;28;20444;-59
2022/12/20 08:42:44;;;;;;;8.70;6.80;;;;;;;9.76;94.24;100038.84;5061959;28;20461;-59
2022/12/20 08:45:12;;;;;;;8.13;6.83;;;;;;;9.88;93.32;100034.22;5097002;27;20455;-59
2022/12/20 08:47:39;;;;;;;7.03;6.33;;;;;;;9.88;92.94;100031.56;5099939;28;20473;-59
2022/12/20 08:50:07;;;;;;;8.00;7.20;;;;;;;10.04;92.19;100022.94;5100638;28;20505;-59
2022/12/20 08:52:33;;;;;;;8.97;6.60;;;;;;;10.15;91.65;100031.63;5089020;28;20480;-59
2022/12/20 08:55:00;;;;;;;7.40;5.80;;;;;;;10.24;91.00;100019.25;5092808;28;20459;-60
2022/12/20 08:57:28;;;;;;;8.87;5.40;;;;;;;10.26;90.48;100022.63;5083651;28;20529;-59
2022/12/20 08:59:55;;;;;;;7.57;5.50;;;;;;;10.28;90.15;100027.84;5091814;28;20860;-60
2022/12/20 09:02:22;;;;;;;7.27;5.90;;;;;;;10.33;89.35;100036.28;5085941;27;20480;-60
2022/12/20 09:04:48;;;;;;;7.50;5.80;;;;;;;10.27;89.29;100034.97;5087310;28;20460;-59
2022/12/20 09:07:15;;;;;;;7.57;5.37;;;;;;;10.45;89.26;100032.47;5093496;28;20483;-60
2022/12/20 09:09:42;;;;;;;6.90;5.17;;;;;;;10.40;88.37;100040.06;5082264;28;20448;-60
2022/12/20 09:12:10;;;;;;;6.70;4.70;;;;;;;10.55;87.76;100029.72;5080598;28;20489;-59
2022/12/20 09:14:38;;;;;;;7.23;4.60;;;;;;;10.42;88.02;100018.53;5081048;28;20448;-59
2022/12/20 09:17:05;;;;;;;8.10;4.30;;;;;;;10.51;87.50;100020.34;5100761;28;20471;-59
2022/12/20 09:19:32;;;;;;;10.80;6.10;;;;;;;10.66;86.96;100015.34;5091028;28;20454;-59
2022/12/20 09:21:58;;;;;;;6.27;5.30;;;;;;;10.62;86.31;100013.97;5080834;28;20537;-59
2022/12/20 09:24:25;;;;;;;9.63;5.70;;;;;;;10.81;85.63;100002.34;5092863;28;20455;-60
2022/12/20 09:26:52;;;;;;;7.97;5.17;;;;;;;10.93;84.58;100003.81;5095405;27;20483;-60
2022/12/20 09:29:19;;;;;;;7.90;5.20;;;;;;;11.27;83.58;100003.22;5091842;28;20444;-60
2022/12/20 09:31:49;;;;;;;10.70;5.53;;;;;;;11.54;81.59;100006.81;5088470;28;20479;-59
2022/12/20 09:34:16;;;;;;;7.70;5.63;;;;;;;12.78;76.45;99999.50;5082925;28;20456;-60
2022/12/20 09:36:43;;;;;;;8.23;5.70;;;;;;;12.61;74.36;99987.84;5087151;28;20729;-60
2022/12/20 09:39:11;;;;;;;6.87;5.13;;;;;;;12.00;77.03;99995.03;5080167;28;20929;-59
2022/12/20 09:41:39;;;;;;;5.97;4.80;;;;;;;11.69;79.16;99986.53;5088720;27;20468;-60
2022/12/20 09:44:12;;;;;;;8.73;5.37;;;;;;;11.64;79.04;99986.16;5088655;28;20463;-59
2022/12/20 09:46:39;;;;;;;7.07;5.50;;;;;;;11.43;79.95;99965.88;5097252;28;20511;-59
2022/12/20 09:49:11;;;;;;;7.37;5.27;;;;;;;11.50;80.65;99972.31;5092005;28;20444;-59
2022/12/20 09:51:47;;;;;;;6.27;5.00;;;;;;;11.35;81.04;99975.69;5082502;28;20472;-60
2022/12/20 09:54:20;;;;;;;5.70;5.10;;;;;;;11.47;80.60;99979.81;5081449;28;20456;-59
2022/12/20 09:56:55;;;;;;;7.73;4.13;;;;;;;11.60;79.96;99977.59;5063535;28;20621;-60
2022/12/20 09:59:22;;;;;;;4.40;4.00;;;;;;;11.80;79.68;99985.44;5081969;28;20455;-59
2022/12/20 10:01:50;;;;;;;5.80;4.60;;;;;;;12.56;75.46;99979.44;5089836;28;20696;-59
2022/12/20 10:04:21;;;;;;;6.90;3.70;;;;;;;12.11;76.77;99975.16;5091918;28;20455;-59
2022/12/20 10:06:57;;;;;;;5.70;3.83;;;;;;;12.08;77.50;99985.34;5093469;28;20475;-59
2022/12/20 10:09:38;;;;;;;5.07;4.10;;;;;;;11.85;78.13;99980.47;5099328;28;20516;-59
2022/12/20 10:12:14;;;;;;;4.60;4.00;;;;;;;11.85;78.71;99975.13;5086165;28;21061;-59
2022/12/20 10:14:54;;;;;;;7.13;4.00;;;;;;;11.60;79.39;99966.06;5087502;28;20495;-60
2022/12/20 10:17:27;;;;;;;4.90;4.37;;;;;;;11.76;79.07;99966.16;5077716;28;20570;-59
2022/12/20 10:20:23;;;;;;;5.60;3.93;;;;;;;12.01;77.63;99969.91;5072542;28;20900;-59
2022/12/20 10:22:54;;;;;;;4.27;3.87;;;;;;;12.31;76.88;99974.94;5082592;28;20475;-59
2022/12/20 10:25:23;;;;;;;5.50;4.20;;;;;;;12.17;77.15;99973.69;5084562;28;20452;-60
2022/12/20 10:27:51;;;;;;;11.10;4.40;;;;;;;12.13;76.71;99975.84;5099247;28;20452;-59
2022/12/20 10:30:19;;;;;;;4.90;4.30;;;;;;;12.16;76.91;99970.16;5096459;28;20455;-59
2022/12/20 10:32:48;;;;;;;4.47;4.07;;;;;;;12.04;77.23;99968.75;5091077;28;20677;-60
2022/12/20 10:35:30;;;;;;;5.10;3.90;;;;;;;11.76;78.23;99962.66;5084341;28;20582;-59
2022/12/20 10:38:00;;;;;;;5.40;4.47;;;;;;;11.67;78.39;99964.44;5099484;28;20479;-59
2022/12/20 10:40:29;;;;;;;5.23;4.47;;;;;;;11.52;79.24;99961.44;5093548;28;20484;-59
2022/12/20 10:42:56;;;;;;;8.13;4.80;;;;;;;11.62;79.26;99948.00;5097541;28;20462;-70
2022/12/20 10:45:35;;;;;;;7.10;5.10;;;;;;;11.55;79.17;99955.78;5081773;28;20567;-62
2022/12/20 10:48:04;;;;;;;5.63;5.10;;;;;;;11.62;79.06;99946.13;5090364;28;20798;-66
2022/12/20 10:50:33;;;;;;;6.70;5.30;;;;;;;11.74;79.23;99956.63;5095454;28;20463;-65
2022/12/20 10:53:28;;;;;;;5.20;4.63;;;;;;;11.64;78.52;99952.19;5086422;28;20488;-61
2022/12/20 10:56:16;;;;;;;5.10;4.60;;;;;;;11.54;79.45;99946.06;5066048;28;20983;-60
2022/12/20 10:58:43;;;;;;;6.00;5.03;;;;;;;11.52;80.06;99948.06;5093004;28;20452;-63
2022/12/20 11:01:13;;;;;;;6.27;4.87;;;;;;;11.35;80.08;99938.22;5090333;28;20475;-66
2022/12/20 11:03:52;;;;;;;6.33;5.60;;;;;;;11.31;80.12;99941.19;5098327;28;20459;-62
2022/12/20 11:06:22;;;;;;;6.97;5.17;;;;;;;11.43;79.95;99936.44;5080893;28;20699;-63
2022/12/20 11:08:49;;;;;;;6.43;5.10;;;;;;;11.37;80.03;99930.84;5094085;28;20912;-62
2022/12/20 11:11:18;;;;;;;5.50;5.00;;;;;;;11.66;79.25;99936.78;5083567;28;20468;-62
2022/12/20 11:13:46;;;;;;;6.17;5.40;;;;;;;11.88;78.45;99945.34;5092694;28;20495;-63
2022/12/20 11:16:25;;;;;;;6.70;5.40;;;;;;;11.67;78.93;99932.31;5096134;28;20475;-62
2022/12/20 11:18:59;;;;;;;5.50;4.73;;;;;;;11.78;78.66;99920.50;5083164;28;20452;-63
2022/12/20 11:21:34;;;;;;;9.13;6.47;;;;;;;11.58;78.91;99901.09;5065748;28;21051;-63
2022/12/20 11:24:08;;;;;;;6.83;4.73;;;;;;;11.85;78.50;99910.81;5085015;28;20501;-63
2022/12/20 11:26:42;;;;;;;6.70;4.70;;;;;;;11.98;77.80;99902.41;5088159;28;20475;-65
2022/12/20 11:29:20;;;;;;;8.63;6.13;;;;;;;12.09;77.41;99912.84;5083170;28;20454;-67
2022/12/20 11:31:52;;;;;;;10.00;7.80;;;;;;;12.05;77.41;99908.81;5082525;28;20477;-63
2022/12/20 11:34:26;;;;;;;11.63;6.97;;;;;;;11.96;77.95;99899.88;5100250;28;20452;-63
2022/12/20 11:37:14;;;;;;;8.53;7.17;;;;;;;11.90;78.02;99884.41;5102132;28;20498;-63
2022/12/20 11:39:53;;;;;;;9.47;7.43;;;;;;;11.91;78.27;99888.81;5103206;28;20467;-63
2022/12/20 11:42:27;;;;;;;6.70;5.53;;;;;;;11.78;78.20;99888.34;5100080;27;20533;-63
2022/12/20 11:45:02;;;;;;;6.80;6.10;;;;;;;11.91;77.54;99874.56;5101807;28;20477;-63
2022/12/20 11:47:39;;;;;;;6.27;5.63;;;;;;;12.16;76.53;99868.34;5102848;28;20479;-63